createdAt,value
2019-05-13T00:00:25.495Z,7.50
2019-05-13T00:02:54.720Z,7.50
2019-05-13T00:05:24.325Z,7.40
2019-05-13T00:07:54.048Z,7.50
2019-05-13T00:10:29.310Z,7.40
2019-05-13T00:12:58.608Z,7.40
2019-05-13T00:15:27.888Z,7.40
2019-05-13T00:17:57.357Z,7.40
2019-05-13T00:20:26.604Z,7.40
2019-05-13T00:22:58.258Z,7.40
2019-05-13T00:25:27.763Z,7.40
2019-05-13T00:27:57.076Z,7.40
2019-05-13T00:30:26.438Z,7.40
2019-05-13T00:32:55.717Z,7.40
2019-05-13T00:35:25.381Z,7.40
2019-05-13T00:37:55.152Z,7.30
2019-05-13T00:40:25.654Z,7.30
2019-05-13T00:43:03.522Z,7.30
2019-05-13T00:45:44.836Z,7.30
2019-05-13T00:48:14.526Z,7.30
2019-05-13T00:50:44.472Z,7.20
2019-05-13T00:53:14.057Z,7.20
2019-05-13T00:55:44.495Z,7.20
2019-05-13T00:58:14.349Z,7.20
2019-05-13T01:00:44.668Z,7.20
2019-05-13T01:03:14.435Z,7.20
2019-05-13T01:05:44.493Z,7.20
2019-05-13T01:08:14.761Z,7.20
2019-05-13T01:10:47.817Z,7.20
2019-05-13T01:13:17.302Z,7.20
2019-05-13T01:15:46.694Z,7.20
2019-05-13T01:18:20.177Z,7.20
2019-05-13T01:20:49.572Z,7.20
2019-05-13T01:23:19.825Z,7.20
2019-05-13T01:25:50.441Z,7.10
2019-05-13T01:28:23.951Z,7.20
2019-05-13T01:30:54.096Z,7.20
2019-05-13T01:33:25.093Z,7.10
2019-05-13T01:35:54.643Z,7.00
2019-05-13T01:38:24.249Z,7.00
2019-05-13T01:40:54.130Z,7.00
2019-05-13T01:43:24.811Z,6.90
2019-05-13T01:45:54.343Z,6.90
2019-05-13T01:48:24.663Z,6.80
2019-05-13T01:50:54.372Z,6.80
2019-05-13T01:53:24.560Z,6.80
2019-05-13T01:55:54.721Z,6.70
2019-05-13T01:58:24.489Z,6.70
2019-05-13T02:00:55.214Z,6.70
2019-05-13T02:03:25.383Z,6.70
2019-05-13T02:05:56.097Z,6.60
2019-05-13T02:08:25.331Z,6.60
2019-05-13T02:10:57.209Z,6.60
2019-05-13T02:13:26.794Z,6.60
2019-05-13T02:15:56.591Z,6.60
2019-05-13T02:18:26.008Z,6.60
2019-05-13T02:20:56.071Z,6.60
2019-05-13T02:23:28.659Z,6.60
2019-05-13T02:25:58.416Z,6.60
2019-05-13T02:28:33.244Z,6.50
2019-05-13T02:31:03.286Z,6.50
2019-05-13T02:33:33.910Z,6.60
2019-05-13T02:36:03.814Z,6.50
2019-05-13T02:38:35.348Z,6.60
2019-05-13T02:41:04.333Z,6.60
2019-05-13T02:43:33.753Z,6.60
2019-05-13T02:46:04.155Z,6.50
2019-05-13T02:48:34.083Z,6.60
2019-05-13T02:51:04.003Z,6.60
2019-05-13T02:53:33.929Z,6.50
2019-05-13T02:56:03.688Z,6.50
2019-05-13T02:58:33.891Z,6.50
2019-05-13T03:01:03.739Z,6.40
2019-05-13T03:03:34.031Z,6.30
2019-05-13T03:06:03.667Z,6.40
2019-05-13T03:08:44.915Z,6.40
2019-05-13T03:11:06.312Z,6.50
2019-05-13T03:13:35.593Z,6.50
2019-05-13T03:16:22.910Z,6.50
2019-05-13T03:18:52.373Z,6.30
2019-05-13T03:21:23.227Z,6.30
2019-05-13T03:23:53.063Z,6.30
2019-05-13T03:26:23.465Z,6.20
2019-05-13T03:28:53.418Z,6.30
2019-05-13T03:31:26.152Z,6.20
2019-05-13T03:33:56.760Z,6.30
2019-05-13T03:36:26.862Z,6.30
2019-05-13T03:39:05.614Z,6.20
2019-05-13T03:41:28.163Z,6.30
2019-05-13T03:43:57.738Z,6.20
2019-05-13T03:46:27.433Z,6.30
2019-05-13T03:48:56.831Z,6.20
2019-05-13T03:51:26.294Z,6.20
2019-05-13T03:53:55.629Z,6.20
2019-05-13T03:56:24.935Z,6.20
2019-05-13T03:58:54.653Z,6.30
2019-05-13T04:01:24.211Z,6.30
2019-05-13T04:03:53.895Z,6.30
2019-05-13T04:06:23.951Z,6.30
2019-05-13T04:08:54.344Z,6.20
2019-05-13T04:11:23.917Z,6.30
2019-05-13T04:13:53.235Z,6.30
2019-05-13T04:16:23.968Z,6.30
2019-05-13T04:18:54.099Z,6.30
2019-05-13T04:21:23.731Z,6.30
2019-05-13T04:23:54.114Z,6.40
2019-05-13T04:26:24.084Z,6.40
2019-05-13T04:28:53.536Z,6.40
2019-05-13T04:31:23.295Z,6.40
2019-05-13T04:33:53.267Z,6.60
2019-05-13T04:36:25.198Z,6.70
2019-05-13T04:38:54.919Z,6.60
2019-05-13T04:41:24.195Z,6.60
2019-05-13T04:43:54.298Z,6.70
2019-05-13T04:46:23.730Z,6.70
2019-05-13T04:48:53.400Z,6.90
2019-05-13T04:51:23.150Z,7.10
2019-05-13T04:53:56.850Z,7.20
2019-05-13T04:56:24.423Z,7.30
2019-05-13T04:58:53.696Z,7.40
2019-05-13T05:02:13.913Z,7.40
2019-05-13T05:04:52.238Z,7.40
2019-05-13T05:07:32.670Z,7.70
2019-05-13T05:10:38.871Z,7.70
2019-05-13T05:13:32.317Z,7.70
2019-05-13T05:16:32.587Z,7.90
2019-05-13T05:19:32.207Z,8.10
2019-05-13T05:22:16.131Z,8.20
2019-05-13T05:25:13.169Z,8.40
2019-05-13T05:28:15.927Z,8.60
2019-05-13T05:31:11.523Z,8.60
2019-05-13T05:34:12.482Z,8.80
2019-05-13T05:37:11.825Z,9.20
2019-05-13T05:39:41.998Z,9.20
2019-05-13T05:42:12.946Z,9.00
2019-05-13T05:44:42.897Z,9.00
2019-05-13T05:47:12.128Z,9.00
2019-05-13T05:49:41.858Z,9.10
2019-05-13T05:52:12.411Z,9.50
2019-05-13T05:54:42.334Z,9.90
2019-05-13T05:57:12.246Z,9.70
2019-05-13T05:59:42.690Z,9.90
2019-05-13T06:02:14.382Z,10.10
2019-05-13T06:04:43.593Z,9.80
2019-05-13T06:07:12.880Z,9.50
2019-05-13T06:09:42.431Z,9.60
2019-05-13T06:12:12.163Z,9.50
2019-05-13T06:14:42.367Z,9.60
2019-05-13T06:17:12.022Z,9.80
2019-05-13T06:19:41.879Z,9.80
2019-05-13T06:22:12.303Z,9.70
2019-05-13T06:24:42.250Z,9.60
2019-05-13T06:27:12.006Z,9.50
2019-05-13T06:29:42.267Z,9.60
2019-05-13T06:32:19.172Z,9.60
2019-05-13T06:34:43.200Z,9.50
2019-05-13T06:37:18.419Z,9.50
2019-05-13T06:39:48.427Z,9.70
2019-05-13T06:42:17.879Z,10.10
2019-05-13T06:44:47.587Z,10.20
2019-05-13T06:47:17.398Z,10.00
2019-05-13T06:49:46.959Z,10.10
2019-05-13T06:52:16.307Z,10.30
2019-05-13T06:54:45.916Z,10.30
2019-05-13T06:57:15.311Z,10.30
2019-05-13T06:59:45.079Z,10.30
2019-05-13T07:02:14.439Z,10.40
2019-05-13T07:04:43.881Z,10.90
2019-05-13T07:07:17.109Z,11.20
2019-05-13T07:09:44.542Z,11.10
2019-05-13T07:12:14.068Z,11.30
2019-05-13T07:14:43.346Z,11.40
2019-05-13T07:17:12.933Z,11.00
2019-05-13T07:19:42.220Z,10.80
2019-05-13T07:22:11.735Z,11.20
2019-05-13T07:24:41.605Z,11.00
2019-05-13T07:27:12.187Z,10.90
2019-05-13T07:29:42.524Z,11.10
2019-05-13T07:32:12.140Z,11.10
2019-05-13T07:34:43.870Z,11.10
2019-05-13T07:37:12.906Z,10.90
2019-05-13T07:39:42.277Z,11.10
2019-05-13T07:42:12.461Z,10.70
2019-05-13T07:44:41.852Z,10.80
2019-05-13T07:47:11.734Z,10.90
2019-05-13T07:49:41.982Z,11.00
2019-05-13T07:52:12.038Z,11.20
2019-05-13T07:54:42.059Z,11.50
2019-05-13T07:57:12.233Z,11.10
2019-05-13T07:59:42.057Z,11.00
2019-05-13T08:02:12.414Z,11.20
2019-05-13T08:04:42.237Z,11.40
2019-05-13T08:07:12.194Z,11.00
2019-05-13T08:09:41.956Z,10.90
2019-05-13T08:12:14.314Z,11.00
2019-05-13T08:14:43.603Z,10.90
2019-05-13T08:17:13.273Z,10.60
2019-05-13T08:19:42.688Z,10.60
2019-05-13T08:22:12.224Z,10.70
2019-05-13T08:24:42.542Z,10.70
2019-05-13T08:27:12.006Z,10.80
2019-05-13T08:29:42.150Z,11.20
2019-05-13T08:32:11.606Z,11.10
2019-05-13T08:34:41.750Z,10.90
2019-05-13T08:37:11.695Z,11.20
2019-05-13T08:39:41.614Z,11.10
2019-05-13T08:42:15.835Z,11.20
2019-05-13T08:44:41.969Z,11.20
2019-05-13T08:47:12.016Z,11.10
2019-05-13T08:49:45.384Z,11.20
2019-05-13T08:52:15.126Z,11.50
2019-05-13T08:54:44.486Z,11.50
2019-05-13T08:57:14.030Z,11.40
2019-05-13T08:59:43.244Z,11.30
2019-05-13T09:02:12.473Z,11.20
2019-05-13T09:04:42.353Z,11.20
2019-05-13T09:07:12.338Z,11.10
2019-05-13T09:09:42.102Z,11.10
2019-05-13T09:12:11.820Z,11.30
2019-05-13T09:14:42.735Z,11.30
2019-05-13T09:17:12.218Z,11.50
2019-05-13T09:19:41.639Z,11.40
2019-05-13T09:22:12.350Z,11.40
2019-05-13T09:24:42.591Z,11.10
2019-05-13T09:27:12.292Z,11.00
2019-05-13T09:29:42.665Z,11.20
2019-05-13T09:32:12.427Z,11.30
2019-05-13T09:34:42.347Z,11.60
2019-05-13T09:37:12.349Z,11.70
2019-05-13T09:39:41.834Z,11.60
2019-05-13T09:42:12.700Z,11.70
2019-05-13T09:44:42.369Z,11.50
2019-05-13T09:47:12.453Z,11.50
2019-05-13T09:49:42.283Z,11.50
2019-05-13T09:52:13.908Z,11.40
2019-05-13T09:54:43.279Z,11.40
2019-05-13T09:57:12.664Z,11.50
2019-05-13T09:59:42.291Z,11.80
2019-05-13T10:02:13.025Z,11.50
2019-05-13T10:04:43.733Z,11.40
2019-05-13T10:07:13.451Z,11.60
2019-05-13T10:09:43.178Z,11.90
2019-05-13T10:12:13.816Z,11.90
2019-05-13T10:14:43.014Z,11.90
2019-05-13T10:17:13.109Z,12.00
2019-05-13T10:19:43.568Z,11.80
2019-05-13T10:22:12.824Z,11.60
2019-05-13T10:24:42.506Z,11.70
2019-05-13T10:27:12.517Z,11.90
2019-05-13T10:29:42.739Z,12.10
2019-05-13T10:32:12.101Z,12.20
2019-05-13T10:34:42.658Z,12.20
2019-05-13T10:37:12.490Z,12.20
2019-05-13T10:39:41.716Z,12.30
2019-05-13T10:42:12.083Z,12.30
2019-05-13T10:44:42.247Z,12.20
2019-05-13T10:47:12.173Z,12.40
2019-05-13T10:49:42.548Z,12.30
2019-05-13T10:52:12.441Z,12.50
2019-05-13T10:54:41.845Z,12.50
2019-05-13T10:57:13.693Z,12.80
2019-05-13T10:59:43.272Z,12.60
2019-05-13T11:02:13.307Z,12.50
2019-05-13T11:04:42.919Z,12.50
2019-05-13T11:07:12.588Z,12.70
2019-05-13T11:09:42.060Z,12.60
2019-05-13T11:12:12.455Z,12.50
2019-05-13T11:14:42.392Z,12.70
2019-05-13T11:17:13.186Z,12.80
2019-05-13T11:19:42.785Z,12.80
2019-05-13T11:22:12.438Z,12.80
2019-05-13T11:24:43.208Z,13.10
2019-05-13T11:27:12.689Z,13.10
2019-05-13T11:29:41.996Z,13.00
2019-05-13T11:32:13.313Z,13.00
2019-05-13T11:34:42.208Z,13.00
2019-05-13T11:37:12.327Z,13.10
2019-05-13T11:39:42.798Z,13.30
2019-05-13T11:42:13.671Z,13.30
2019-05-13T11:44:43.327Z,13.30
2019-05-13T11:47:12.895Z,13.40
2019-05-13T11:49:42.653Z,13.40
2019-05-13T11:52:12.261Z,13.50
2019-05-13T11:54:42.506Z,13.40
2019-05-13T11:57:12.547Z,13.40
2019-05-13T11:59:43.047Z,13.50
2019-05-13T12:02:13.592Z,13.60
2019-05-13T12:04:43.976Z,13.70
2019-05-13T12:07:13.710Z,13.80
2019-05-13T12:09:42.992Z,13.80
2019-05-13T12:12:13.137Z,13.80
2019-05-13T12:15:04.977Z,13.90
2019-05-13T12:17:14.332Z,14.20
2019-05-13T12:19:43.897Z,13.90
2019-05-13T12:22:13.353Z,13.80
2019-05-13T12:24:42.870Z,13.70
2019-05-13T12:27:12.165Z,13.50
2019-05-13T12:29:43.002Z,13.70
2019-05-13T12:32:13.725Z,13.90
2019-05-13T12:34:45.840Z,13.60
2019-05-13T12:37:14.092Z,13.30
2019-05-13T12:39:44.065Z,13.10
2019-05-13T12:42:13.488Z,13.10
2019-05-13T12:45:00.583Z,13.20
2019-05-13T12:47:13.595Z,13.20
2019-05-13T12:49:43.725Z,13.30
2019-05-13T12:52:13.641Z,13.20
2019-05-13T12:54:44.493Z,13.20
2019-05-13T12:57:16.244Z,13.30
2019-05-13T12:59:44.851Z,13.30
2019-05-13T13:02:14.113Z,13.30
2019-05-13T13:07:14.352Z,13.50
2019-05-13T13:09:43.696Z,13.30
2019-05-13T13:12:13.058Z,13.40
2019-05-13T13:14:44.322Z,13.60
2019-05-13T13:17:13.395Z,13.40
2019-05-13T13:19:42.631Z,13.40
2019-05-13T13:22:13.295Z,13.60
2019-05-13T13:24:50.734Z,13.60
2019-05-13T13:27:22.670Z,13.40
2019-05-13T13:29:44.862Z,13.60
2019-05-13T13:32:14.097Z,13.70
2019-05-13T13:34:44.284Z,13.70
2019-05-13T13:37:13.657Z,13.60
2019-05-13T13:39:43.602Z,13.50
2019-05-13T13:42:13.338Z,13.50
2019-05-13T13:44:43.115Z,13.60
2019-05-13T13:47:14.676Z,13.60
2019-05-13T13:49:44.096Z,13.50
2019-05-13T13:52:15.928Z,13.40
2019-05-13T13:54:44.586Z,13.40
2019-05-13T13:57:14.006Z,13.60
2019-05-13T14:00:14.175Z,13.50
2019-05-13T14:02:14.376Z,13.50
2019-05-13T14:04:43.809Z,13.40
2019-05-13T14:06:35.512Z,13.50
2019-05-13T14:07:26.559Z,13.50
2019-05-13T14:09:44.418Z,13.60
2019-05-13T14:12:13.646Z,13.50
2019-05-13T14:14:42.864Z,13.40
2019-05-13T14:17:12.226Z,13.20
2019-05-13T14:19:42.228Z,13.50
2019-05-13T14:22:12.539Z,13.30
2019-05-13T14:24:42.674Z,13.20
2019-05-13T14:27:12.285Z,13.30
2019-05-13T14:29:48.655Z,13.20
2019-05-13T14:32:12.584Z,13.10
2019-05-13T14:34:42.222Z,13.20
2019-05-13T14:37:11.822Z,13.30
2019-05-13T14:39:41.722Z,13.40
2019-05-13T14:42:11.705Z,13.40
2019-05-13T14:44:41.178Z,13.10
2019-05-13T14:47:12.474Z,13.00
2019-05-13T14:49:42.318Z,13.10
2019-05-13T14:52:12.114Z,13.00
2019-05-13T14:54:42.147Z,12.90
2019-05-13T14:57:14.844Z,12.80
2019-05-13T14:59:42.975Z,12.80
2019-05-13T15:02:12.338Z,12.90
2019-05-13T15:04:42.351Z,12.90
2019-05-13T15:07:12.349Z,13.00
2019-05-13T15:09:42.203Z,13.10
2019-05-13T15:12:11.724Z,13.20
2019-05-13T15:14:42.919Z,13.00
2019-05-13T15:17:12.731Z,13.00
2019-05-13T15:19:42.275Z,13.10
2019-05-13T15:22:13.613Z,13.30
2019-05-13T15:24:42.507Z,13.40
2019-05-13T15:27:11.972Z,13.40
2019-05-13T15:29:41.828Z,13.10
2019-05-13T15:32:11.232Z,13.10
2019-05-13T15:34:42.483Z,13.20
2019-05-13T15:37:11.430Z,13.10
2019-05-13T15:39:42.591Z,13.40
2019-05-13T15:42:12.070Z,13.30
2019-05-13T15:44:41.465Z,13.30
2019-05-13T15:47:22.821Z,13.30
2019-05-13T15:49:44.045Z,13.40
2019-05-13T15:52:13.492Z,13.40
2019-05-13T15:54:42.788Z,13.40
2019-05-13T15:57:12.163Z,13.30
2019-05-13T15:59:41.567Z,13.30
2019-05-13T16:02:11.804Z,13.40
2019-05-13T16:04:50.009Z,13.40
2019-05-13T16:07:12.620Z,13.30
2019-05-13T16:09:42.178Z,13.40
2019-05-13T16:12:12.194Z,13.50
2019-05-13T16:14:42.063Z,13.50
2019-05-13T16:17:12.298Z,13.60
2019-05-13T16:19:42.152Z,13.50
2019-05-13T16:22:11.976Z,13.40
2019-05-13T16:24:41.629Z,13.50
2019-05-13T16:27:11.853Z,13.30
2019-05-13T16:29:42.360Z,13.20
2019-05-13T16:32:12.108Z,13.20
2019-05-13T16:34:42.336Z,13.30
2019-05-13T16:37:11.882Z,13.40
2019-05-13T16:39:43.405Z,13.20
2019-05-13T16:42:12.644Z,13.10
2019-05-13T16:44:43.041Z,13.00
2019-05-13T16:47:12.499Z,13.10
2019-05-13T16:49:41.725Z,13.20
2019-05-13T16:52:11.708Z,13.10
2019-05-13T16:54:42.529Z,13.10
2019-05-13T16:57:11.994Z,13.00
2019-05-13T16:59:41.239Z,12.90
2019-05-13T17:02:12.641Z,13.00
2019-05-13T17:04:41.598Z,13.00
2019-05-13T17:07:10.864Z,13.00
2019-05-13T17:09:41.581Z,13.00
2019-05-13T17:12:12.896Z,13.00
2019-05-13T17:14:42.022Z,13.00
2019-05-13T17:17:11.875Z,12.90
2019-05-13T17:19:42.230Z,12.90
2019-05-13T17:22:11.673Z,13.00
2019-05-13T17:24:42.662Z,12.90
2019-05-13T17:27:12.222Z,12.90
2019-05-13T17:29:41.793Z,12.80
2019-05-13T17:32:11.581Z,12.80
2019-05-13T17:34:43.637Z,12.70
2019-05-13T17:37:12.044Z,12.70
2019-05-13T17:39:41.630Z,12.70
2019-05-13T17:42:12.281Z,12.50
2019-05-13T17:44:45.980Z,12.60
2019-05-13T17:47:12.688Z,12.60
2019-05-13T17:49:41.998Z,12.60
2019-05-13T17:52:11.610Z,12.60
2019-05-13T17:54:42.846Z,12.60
2019-05-13T17:57:12.369Z,12.50
2019-05-13T17:59:41.912Z,12.40
2019-05-13T18:02:11.884Z,12.30
2019-05-13T18:04:41.583Z,12.40
2019-05-13T18:07:12.158Z,12.30
2019-05-13T18:09:42.355Z,12.20
2019-05-13T18:12:11.883Z,12.20
2019-05-13T18:14:41.371Z,12.20
2019-05-13T18:17:12.527Z,12.20
2019-05-13T18:19:42.230Z,12.10
2019-05-13T18:22:11.667Z,12.00
2019-05-13T18:24:40.929Z,12.00
2019-05-13T18:27:12.237Z,11.90
2019-05-13T18:29:41.967Z,11.90
2019-05-13T18:32:12.325Z,11.90
2019-05-13T18:34:42.002Z,11.90
2019-05-13T18:37:11.832Z,11.90
2019-05-13T18:39:41.686Z,11.80
2019-05-13T18:42:11.645Z,11.80
2019-05-13T18:44:42.195Z,11.80
2019-05-13T18:47:12.203Z,11.80
2019-05-13T18:49:42.302Z,11.80
2019-05-13T18:52:11.897Z,11.80
2019-05-13T18:54:42.153Z,11.70
2019-05-13T18:57:12.260Z,11.60
2019-05-13T18:59:41.747Z,11.60
2019-05-13T19:02:12.227Z,11.60
2019-05-13T19:04:41.911Z,11.50
2019-05-13T19:07:11.117Z,11.50
2019-05-13T19:09:41.760Z,11.40
2019-05-13T19:12:11.754Z,11.40
2019-05-13T19:14:41.295Z,11.40
2019-05-13T19:17:12.402Z,11.30
2019-05-13T19:19:42.234Z,11.30
2019-05-13T19:22:12.303Z,11.30
2019-05-13T19:24:41.790Z,11.30
2019-05-13T19:27:12.049Z,11.20
2019-05-13T19:29:42.569Z,11.20
2019-05-13T19:32:12.568Z,11.20
2019-05-13T19:34:42.499Z,11.10
2019-05-13T19:37:12.023Z,11.10
2019-05-13T19:39:41.307Z,11.10
2019-05-13T19:42:11.595Z,11.10
2019-05-13T19:44:42.083Z,11.00
2019-05-13T19:47:12.473Z,11.00
2019-05-13T19:49:46.103Z,11.00
2019-05-13T19:52:12.833Z,11.00
2019-05-13T19:54:42.217Z,10.90
2019-05-13T19:57:12.109Z,10.90
2019-05-13T19:59:42.631Z,10.90
2019-05-13T20:02:12.453Z,10.90
2019-05-13T20:04:41.890Z,10.80
2019-05-13T20:07:11.947Z,10.80
2019-05-13T20:09:42.636Z,10.80
2019-05-13T20:12:15.522Z,10.70
2019-05-13T20:14:43.325Z,10.70
2019-05-13T20:17:12.693Z,10.70
2019-05-13T20:19:50.091Z,10.60
2019-05-13T20:22:13.099Z,10.60
2019-05-13T20:24:42.426Z,10.60
2019-05-13T20:27:12.108Z,10.50
2019-05-13T20:29:41.795Z,10.50
2019-05-13T20:32:11.684Z,10.50
2019-05-13T20:34:41.163Z,10.50
2019-05-13T20:37:12.390Z,10.50
2019-05-13T20:39:42.471Z,10.40
2019-05-13T20:42:12.520Z,10.30
2019-05-13T20:44:42.147Z,10.30
2019-05-13T20:47:11.394Z,10.30
2019-05-13T20:49:41.750Z,10.30
2019-05-13T20:52:15.060Z,10.20
2019-05-13T20:54:42.345Z,10.20
2019-05-13T20:57:11.581Z,10.20
2019-05-13T20:59:41.472Z,10.10
2019-05-13T21:02:12.480Z,10.10
2019-05-13T21:04:42.137Z,10.00
2019-05-13T21:07:11.341Z,9.90
2019-05-13T21:09:42.336Z,9.90
2019-05-13T21:12:12.165Z,9.90
2019-05-13T21:14:41.772Z,9.90
2019-05-13T21:17:12.320Z,9.80
2019-05-13T21:19:42.862Z,9.80
2019-05-13T21:22:13.013Z,9.70
2019-05-13T21:24:42.490Z,9.70
2019-05-13T21:27:12.131Z,9.70
2019-05-13T21:29:41.642Z,9.60
2019-05-13T21:32:11.733Z,9.60
2019-05-13T21:34:41.234Z,9.50
2019-05-13T21:37:11.529Z,9.50
2019-05-13T21:39:41.308Z,9.50
2019-05-13T21:42:11.453Z,9.50
2019-05-13T21:44:42.030Z,9.40
2019-05-13T21:47:11.594Z,9.40
2019-05-13T21:49:42.353Z,9.40
2019-05-13T21:52:11.846Z,9.30
2019-05-13T21:54:42.196Z,9.30
2019-05-13T21:57:11.750Z,9.30
2019-05-13T21:59:41.512Z,9.30
2019-05-13T22:02:11.293Z,9.30
2019-05-13T22:04:41.251Z,9.30
2019-05-13T22:07:12.130Z,9.20
2019-05-13T22:09:42.276Z,9.20
2019-05-13T22:12:11.743Z,9.20
2019-05-13T22:14:41.376Z,9.20
2019-05-13T22:17:12.280Z,9.10
2019-05-13T22:19:42.086Z,9.10
2019-05-13T22:22:12.041Z,9.10
2019-05-13T22:24:41.837Z,9.10
2019-05-13T22:27:13.278Z,9.00
2019-05-13T22:29:42.391Z,9.00
2019-05-13T22:32:11.977Z,9.10
2019-05-13T22:34:41.900Z,9.00
2019-05-13T22:37:11.798Z,9.00
2019-05-13T22:39:42.076Z,9.00
2019-05-13T22:42:12.397Z,9.00
2019-05-13T22:44:41.996Z,9.00
2019-05-13T22:47:13.306Z,9.00
2019-05-13T22:49:42.154Z,9.00
2019-05-13T22:52:11.535Z,9.00
2019-05-13T22:54:41.315Z,9.00
2019-05-13T22:57:11.939Z,8.90
2019-05-13T22:59:41.716Z,9.00
2019-05-13T23:02:11.059Z,8.90
2019-05-13T23:04:41.821Z,8.90
2019-05-13T23:07:11.766Z,8.90
2019-05-13T23:09:41.747Z,8.90
2019-05-13T23:12:12.285Z,8.80
2019-05-13T23:14:41.928Z,8.80
2019-05-13T23:17:12.451Z,8.80
2019-05-13T23:19:41.977Z,8.70
2019-05-13T23:22:12.070Z,8.70
2019-05-13T23:24:41.845Z,8.60
2019-05-13T23:27:11.348Z,8.60
2019-05-13T23:29:41.289Z,8.70
2019-05-13T23:32:12.154Z,8.70
2019-05-13T23:34:42.235Z,8.70
2019-05-13T23:37:11.795Z,8.70
2019-05-13T23:39:41.602Z,8.60
2019-05-13T23:42:12.271Z,8.60
2019-05-13T23:44:41.973Z,8.60
2019-05-13T23:47:11.665Z,8.50
2019-05-13T23:49:42.232Z,8.40
2019-05-13T23:52:11.980Z,8.50
2019-05-13T23:54:42.529Z,8.40
2019-05-13T23:57:12.100Z,8.40
2019-05-13T23:59:42.096Z,8.30
